Time;durP1;ratioP1;P1;durP2;ratioP2;P2;SDS_P1;SDS_P2;PMS_P1;PMS_P2;Temp;Humidity;BMP_temperature;BMP_pressure;BME280_temperature;BME280_humidity;BME280_pressure;Samples;Min_cycle;Max_cycle;Signal;HPM_P1;HPM_P2
2022/03/28 00:00:00;;;;;;;30.17;5.35;;;;;;;7.05;85.01;102891.97;5045776;28;20120;-58
2022/03/28 00:02:26;;;;;;;27.90;4.45;;;;;;;6.98;85.30;102891.00;5044273;28;20037;-57
2022/03/28 00:04:51;;;;;;;27.50;5.55;;;;;;;6.97;85.22;102886.63;5046519;28;20466;-58
2022/03/28 00:07:17;;;;;;;35.90;5.72;;;;;;;6.93;85.34;102883.06;5045263;28;20399;-56
2022/03/28 00:09:42;;;;;;;26.60;4.43;;;;;;;6.91;85.17;102883.91;5045349;28;20024;-58
2022/03/28 00:12:08;;;;;;;28.45;4.40;;;;;;;6.87;85.16;102874.25;5045377;28;20025;-58
2022/03/28 00:14:34;;;;;;;26.00;4.57;;;;;;;6.86;85.36;102880.34;5044686;28;20115;-58
2022/03/28 00:16:59;;;;;;;22.25;3.83;;;;;;;6.79;85.41;102879.38;5045362;28;20029;-58
2022/03/28 00:19:24;;;;;;;25.25;4.40;;;;;;;6.78;85.26;102868.03;5044887;28;20040;-58
2022/03/28 00:21:50;;;;;;;29.05;5.55;;;;;;;6.77;85.22;102868.84;5045794;28;20438;-58
2022/03/28 00:24:15;;;;;;;27.30;4.43;;;;;;;6.77;85.34;102871.47;5044442;28;20025;-57
2022/03/28 00:26:41;;;;;;;18.42;4.28;;;;;;;6.76;85.07;102871.47;5045195;28;20052;-58
2022/03/28 00:29:06;;;;;;;27.67;4.20;;;;;;;6.75;85.02;102867.97;5043463;28;20380;-61
2022/03/28 00:31:31;;;;;;;25.58;4.20;;;;;;;6.68;85.12;102860.84;5045173;28;20025;-57
2022/03/28 00:33:57;;;;;;;24.17;4.78;;;;;;;6.63;85.37;102865.16;5044602;28;20043;-56
2022/03/28 00:36:22;;;;;;;24.88;4.25;;;;;;;6.55;85.59;102860.69;5045280;28;20479;-58
2022/03/28 00:38:48;;;;;;;29.65;5.43;;;;;;;6.49;85.70;102857.97;5043951;28;20025;-57
2022/03/28 00:41:14;;;;;;;30.35;6.40;;;;;;;6.48;85.86;102864.06;5027445;28;20029;-57
2022/03/28 00:43:44;;;;;;;29.95;5.20;;;;;;;6.54;85.64;102864.13;5043477;28;20059;-58
2022/03/28 00:46:09;;;;;;;23.70;4.38;;;;;;;6.55;85.31;102851.94;5045155;28;20060;-57
2022/03/28 00:48:35;;;;;;;23.02;5.55;;;;;;;6.54;85.32;102848.44;5044176;28;20413;-58
2022/03/28 00:51:01;;;;;;;26.98;5.03;;;;;;;6.55;85.27;102844.97;5045096;28;20032;-56
2022/03/28 00:53:27;;;;;;;28.50;4.80;;;;;;;6.49;85.40;102850.09;5043635;28;20037;-56
2022/03/28 00:55:52;;;;;;;29.58;5.25;;;;;;;6.43;85.65;102844.78;5027156;28;20039;-57
2022/03/28 00:58:17;;;;;;;27.63;5.15;;;;;;;6.37;85.74;102844.66;5043132;28;20028;-57
2022/03/28 01:00:44;;;;;;;32.38;4.50;;;;;;;6.29;86.07;102842.81;5043361;28;20028;-59
2022/03/28 01:03:09;;;;;;;27.52;5.70;;;;;;;6.29;86.08;102842.81;5026217;28;20021;-60
2022/03/28 01:05:34;;;;;;;32.65;5.45;;;;;;;6.28;86.39;102830.59;5044451;28;20127;-56
2022/03/28 01:08:00;;;;;;;34.95;5.53;;;;;;;6.26;86.33;102821.81;5026087;28;20490;-58
2022/03/28 01:10:26;;;;;;;21.67;4.32;;;;;;;6.34;85.77;102828.91;5042958;28;20068;-59
2022/03/28 01:12:51;;;;;;;25.73;4.63;;;;;;;6.28;86.33;102824.44;5043925;28;20084;-57
2022/03/28 01:15:17;;;;;;;34.25;5.07;;;;;;;6.23;86.49;102816.53;5042290;28;20483;-58
2022/03/28 01:20:28;;;;;;;31.17;5.57;;;;;;;6.19;86.89;102812.09;5042599;28;20079;-59
2022/03/28 01:22:53;;;;;;;28.92;5.75;;;;;;;6.19;86.82;102814.72;5044395;28;20025;-58
2022/03/28 01:25:22;;;;;;;25.52;5.63;;;;;;;6.21;86.82;102807.78;5025591;28;20029;-60
2022/03/28 01:27:49;;;;;;;30.98;5.93;;;;;;;6.18;86.98;102812.97;5043285;28;20033;-57
2022/03/28 01:30:14;;;;;;;34.03;5.82;;;;;;;6.16;86.98;102804.19;5043230;28;20430;-58
2022/03/28 01:32:39;;;;;;;28.70;5.28;;;;;;;6.20;86.90;102806.00;5044250;28;20079;-57
2022/03/28 01:35:05;;;;;;;22.52;5.28;;;;;;;6.17;86.73;102811.22;5043363;28;20029;-58
2022/03/28 01:37:30;;;;;;;22.45;4.32;;;;;;;6.17;86.72;102805.97;5043829;28;20029;-58
2022/03/28 01:39:56;;;;;;;27.15;6.47;;;;;;;6.20;86.52;102795.53;5043229;28;20033;-56
2022/03/28 01:42:21;;;;;;;32.60;5.05;;;;;;;6.18;86.69;102792.88;5043766;28;20029;-57
2022/03/28 01:44:51;;;;;;;27.92;4.55;;;;;;;6.21;86.78;102789.44;5042178;28;20033;-57
2022/03/28 01:47:17;;;;;;;24.17;4.57;;;;;;;6.18;86.74;102786.78;5043738;28;20025;-55
2022/03/28 01:49:42;;;;;;;27.80;5.07;;;;;;;6.14;86.61;102784.97;5042920;28;20028;-58
2022/03/28 01:52:08;;;;;;;27.13;4.50;;;;;;;6.02;86.96;102783.88;5043456;28;20025;-61
2022/03/28 01:54:33;;;;;;;27.65;4.80;;;;;;;5.99;87.11;102783.81;5043102;28;20064;-59
2022/03/28 01:56:58;;;;;;;32.30;6.00;;;;;;;5.90;87.45;102781.94;5044162;28;20114;-57
2022/03/28 01:59:23;;;;;;;27.63;5.10;;;;;;;5.82;87.86;102781.78;5042349;28;20378;-56
2022/03/28 02:01:49;;;;;;;42.38;6.72;;;;;;;5.79;87.85;102773.91;5043357;28;20027;-57
2022/03/28 02:04:15;;;;;;;30.75;5.57;;;;;;;5.72;88.15;102781.63;5044304;28;20392;-59
2022/03/28 02:06:40;;;;;;;23.42;5.10;;;;;;;5.69;88.10;102774.59;5044382;28;20037;-59
2022/03/28 02:09:05;;;;;;;32.45;5.57;;;;;;;5.72;87.85;102782.47;5026720;28;20025;-58
2022/03/28 02:11:32;;;;;;;34.20;5.45;;;;;;;5.67;88.24;102773.69;5042895;28;20174;-57
2022/03/28 02:13:58;;;;;;;37.35;6.30;;;;;;;5.63;88.48;102770.13;5024454;28;20029;-58
2022/03/28 02:16:23;;;;;;;34.38;6.38;;;;;;;5.64;88.44;102768.41;5042449;28;20033;-56
2022/03/28 02:18:49;;;;;;;26.98;5.18;;;;;;;5.63;88.13;102767.50;5043638;28;20195;-59
2022/03/28 02:21:14;;;;;;;32.05;6.13;;;;;;;5.62;88.39;102767.47;5041508;28;20009;-58
2022/03/28 02:23:39;;;;;;;38.45;5.75;;;;;;;5.57;88.45;102762.19;5043824;28;20040;-58
2022/03/28 02:26:05;;;;;;;34.40;6.45;;;;;;;5.54;88.56;102762.13;5042022;28;20025;-60
2022/03/28 02:28:31;;;;;;;39.83;6.53;;;;;;;5.51;88.62;102762.94;5025448;28;20025;-60
2022/03/28 02:30:56;;;;;;;26.70;5.40;;;;;;;5.51;88.50;102757.69;5040986;28;20426;-59
2022/03/28 02:33:22;;;;;;;22.90;6.47;;;;;;;5.54;88.45;102756.91;5042991;28;20029;-56
2022/03/28 02:35:48;;;;;;;26.63;5.45;;;;;;;5.47;88.64;102750.66;5043121;28;20021;-59
2022/03/28 02:38:13;;;;;;;25.15;5.57;;;;;;;5.43;88.69;102749.75;5047218;28;20035;-56
2022/03/28 02:40:38;;;;;;;27.48;5.68;;;;;;;5.43;88.85;102744.53;5046120;28;20105;-59
2022/03/28 02:43:04;;;;;;;33.67;5.95;;;;;;;5.38;88.98;102740.91;5047172;28;20078;-55
2022/03/28 02:45:32;;;;;;;37.95;6.20;;;;;;;5.35;89.26;102738.25;5045508;28;20037;-60
2022/03/28 02:47:59;;;;;;;32.75;6.10;;;;;;;5.31;89.42;102734.72;5027511;28;20021;-58
2022/03/28 02:50:25;;;;;;;28.48;5.72;;;;;;;5.34;89.21;102733.00;5026249;28;20061;-58
2022/03/28 02:52:50;;;;;;;32.95;5.97;;;;;;;5.33;88.98;102732.13;5044664;28;20125;-58
2022/03/28 02:55:17;;;;;;;28.08;5.68;;;;;;;5.32;89.13;102730.34;5046289;28;20420;-56
2022/03/28 02:57:42;;;;;;;27.52;5.72;;;;;;;5.30;89.15;102722.47;5046009;28;20135;-55
2022/03/28 03:00:08;;;;;;;31.88;5.93;;;;;;;5.28;89.32;102723.31;5046109;28;20049;-59
2022/03/28 03:02:34;;;;;;;31.58;6.07;;;;;;;5.26;89.70;102720.66;5046349;28;20452;-58
2022/03/28 03:04:59;;;;;;;26.60;6.10;;;;;;;5.27;89.44;102717.19;5046778;28;20037;-58
2022/03/28 03:07:25;;;;;;;26.25;6.38;;;;;;;5.25;89.23;102724.13;5045610;28;20021;-57
2022/03/28 03:09:51;;;;;;;29.90;5.85;;;;;;;5.24;89.60;102714.50;5046794;28;20049;-59
2022/03/28 03:12:16;;;;;;;29.92;6.72;;;;;;;5.18;89.85;102711.81;5045513;28;20484;-55
2022/03/28 03:14:41;;;;;;;35.38;7.18;;;;;;;5.15;89.73;102707.38;5046048;28;20438;-57
2022/03/28 03:17:07;;;;;;;39.80;7.88;;;;;;;5.13;89.76;102702.97;5044965;28;20379;-61
2022/03/28 03:19:32;;;;;;;27.08;6.72;;;;;;;5.08;89.89;102704.66;5046621;28;20241;-58
2022/03/28 03:21:57;;;;;;;31.50;6.22;;;;;;;5.03;90.21;102699.31;5045630;28;20043;-58
2022/03/28 03:24:23;;;;;;;33.45;6.63;;;;;;;5.01;90.35;102699.28;5046453;28;20471;-58
2022/03/28 03:26:48;;;;;;;30.83;7.07;;;;;;;5.00;90.14;102696.66;5027064;28;20032;-56
2022/03/28 03:29:13;;;;;;;36.25;10.20;;;;;;;5.00;90.17;102704.50;5044590;28;20028;-58
2022/03/28 03:31:39;;;;;;;31.80;7.28;;;;;;;5.03;90.40;102697.56;5045168;28;20029;-57
2022/03/28 03:34:06;;;;;;;32.85;6.93;;;;;;;5.03;89.82;102689.72;5045293;28;20033;-57
2022/03/28 03:36:32;;;;;;;27.55;6.90;;;;;;;5.00;90.09;102696.66;5045544;28;20136;-57
2022/03/28 03:38:57;;;;;;;25.35;7.45;;;;;;;4.99;89.95;102693.16;5045587;28;20577;-58
2022/03/28 03:41:22;;;;;;;33.00;6.32;;;;;;;4.99;89.89;102689.63;5045819;28;20033;-59
2022/03/28 03:43:48;;;;;;;38.60;7.78;;;;;;;4.97;89.68;102687.00;5026771;28;20129;-58
2022/03/28 03:46:13;;;;;;;31.48;7.70;;;;;;;4.98;89.93;102682.66;5045250;28;20029;-57
2022/03/28 03:48:39;;;;;;;32.17;8.10;;;;;;;4.90;90.00;102675.56;5044815;28;20526;-59
2022/03/28 03:51:04;;;;;;;28.92;7.72;;;;;;;4.84;90.33;102679.81;5045689;28;20067;-58
2022/03/28 03:53:29;;;;;;;32.47;8.15;;;;;;;4.84;90.23;102677.19;5044452;28;20116;-58
2022/03/28 03:55:55;;;;;;;35.15;8.00;;;;;;;4.82;90.08;102677.16;5045358;28;20162;-58
2022/03/28 03:58:20;;;;;;;26.05;8.32;;;;;;;4.76;90.07;102677.88;5038415;28;20076;-59
2022/03/28 04:00:45;;;;;;;35.88;9.23;;;;;;;4.77;90.09;102669.22;5044661;28;20048;-59
2022/03/28 04:03:11;;;;;;;29.45;8.60;;;;;;;4.75;90.38;102660.47;5046646;28;20029;-57
2022/03/28 04:05:37;;;;;;;31.30;9.25;;;;;;;4.78;90.28;102662.25;5046233;28;20025;-60
2022/03/28 04:08:05;;;;;;;23.85;8.20;;;;;;;4.80;89.89;102661.44;5046615;28;20075;-58
2022/03/28 04:10:31;;;;;;;32.25;9.25;;;;;;;4.79;90.21;102666.66;5012047;28;20053;-57
2022/03/28 04:12:57;;;;;;;29.88;8.48;;;;;;;4.78;89.79;102652.69;5045838;28;20040;-58
2022/03/28 04:15:22;;;;;;;32.60;9.82;;;;;;;4.78;89.89;102651.81;5027527;28;20021;-58
2022/03/28 04:17:47;;;;;;;31.85;9.27;;;;;;;4.76;90.08;102651.78;5046329;28;20025;-58
2022/03/28 04:20:14;;;;;;;25.10;8.77;;;;;;;4.77;90.26;102656.16;5046212;28;20040;-57
2022/03/28 04:22:41;;;;;;;28.48;8.98;;;;;;;4.79;89.75;102662.28;5045997;28;20529;-59
2022/03/28 04:25:08;;;;;;;34.38;10.15;;;;;;;4.73;89.85;102659.53;5045895;28;20035;-64
2022/03/28 04:27:34;;;;;;;32.22;9.05;;;;;;;4.72;89.73;102659.53;5028051;28;20059;-58
2022/03/28 04:30:00;;;;;;;27.20;9.43;;;;;;;4.67;89.84;102662.06;5045911;28;20075;-58
2022/03/28 04:32:25;;;;;;;33.20;9.00;;;;;;;4.60;89.98;102670.63;5045588;28;20017;-57
2022/03/28 04:34:52;;;;;;;28.60;9.65;;;;;;;4.57;90.23;102670.56;5045834;28;20021;-57
2022/03/28 04:37:17;;;;;;;30.08;8.40;;;;;;;4.60;90.04;102660.16;5045540;28;20156;-58
2022/03/28 04:39:42;;;;;;;26.10;10.05;;;;;;;4.51;90.28;102659.13;5045919;28;20045;-57
2022/03/28 04:42:08;;;;;;;21.00;8.38;;;;;;;4.46;90.53;102662.47;5044880;28;20025;-59
2022/03/28 04:44:33;;;;;;;28.70;8.93;;;;;;;4.45;90.32;102674.66;5045014;28;20021;-57
2022/03/28 04:46:58;;;;;;;26.10;9.75;;;;;;;4.48;90.28;102673.84;5045271;28;20135;-60
2022/03/28 04:49:24;;;;;;;33.58;9.95;;;;;;;4.46;90.28;102667.72;5044951;28;20447;-58
2022/03/28 04:51:49;;;;;;;34.88;10.40;;;;;;;4.39;90.41;102666.69;5042204;28;20458;-61
2022/03/28 04:54:14;;;;;;;29.15;9.85;;;;;;;4.35;90.97;102670.97;5044113;28;20112;-59
2022/03/28 04:56:40;;;;;;;30.10;10.25;;;;;;;4.32;90.93;102670.00;5042834;28;20029;-59
2022/03/28 04:59:06;;;;;;;36.05;10.57;;;;;;;4.29;91.09;102663.00;5024609;28;20037;-60
2022/03/28 05:01:31;;;;;;;32.75;10.05;;;;;;;4.27;91.48;102662.97;5044148;28;20028;-59
2022/03/28 05:03:57;;;;;;;32.47;11.70;;;;;;;4.27;91.72;102656.84;5044341;28;20036;-60
2022/03/28 05:06:22;;;;;;;31.95;11.48;;;;;;;4.27;91.74;102649.91;5043945;28;20017;-59
2022/03/28 05:08:47;;;;;;;33.10;11.27;;;;;;;4.29;91.91;102639.50;5029438;28;20025;-60
2022/03/28 05:11:13;;;;;;;33.28;11.05;;;;;;;4.27;91.60;102646.41;5030378;28;20033;-58
2022/03/28 05:13:38;;;;;;;32.88;10.98;;;;;;;4.24;91.61;102626.34;5043887;28;20024;-63
2022/03/28 05:16:04;;;;;;;30.42;11.15;;;;;;;4.21;91.57;102626.28;5044039;28;20028;-58
2022/03/28 05:18:29;;;;;;;33.60;10.63;;;;;;;4.22;91.71;102625.47;5009741;28;20028;-57
2022/03/28 05:20:54;;;;;;;40.45;11.68;;;;;;;4.28;91.82;102617.75;5043320;28;20032;-58
2022/03/28 05:23:20;;;;;;;35.13;11.35;;;;;;;4.30;91.98;102620.38;5043963;28;20013;-59
2022/03/28 05:25:45;;;;;;;31.77;10.68;;;;;;;4.30;92.18;102623.88;5043119;28;20514;-60
2022/03/28 05:28:10;;;;;;;37.83;12.70;;;;;;;4.30;92.04;102630.81;5043886;28;20029;-60
2022/03/28 05:30:36;;;;;;;39.83;12.68;;;;;;;4.29;92.87;102632.56;5044051;28;20013;-61
2022/03/28 05:33:01;;;;;;;31.80;12.15;;;;;;;4.34;92.74;102618.72;5041302;28;20121;-58
2022/03/28 05:35:27;;;;;;;36.47;12.25;;;;;;;4.32;92.58;102620.41;5033254;28;20550;-65
2022/03/28 05:37:53;;;;;;;36.53;12.07;;;;;;;4.30;92.74;102631.72;5024773;28;20040;-60
2022/03/28 05:40:18;;;;;;;31.95;12.80;;;;;;;4.29;92.65;102632.56;5006242;28;20036;-58
2022/03/28 05:42:43;;;;;;;39.10;13.80;;;;;;;4.29;92.95;102635.19;5032878;28;20131;-59
2022/03/28 05:45:11;;;;;;;37.67;14.20;;;;;;;4.27;93.24;102631.66;5043665;28;20051;-59
2022/03/28 05:47:36;;;;;;;33.38;13.07;;;;;;;4.32;93.01;102625.63;5043208;28;20029;-60
2022/03/28 05:50:02;;;;;;;29.33;13.23;;;;;;;4.36;93.13;102630.09;5044067;28;20028;-60
2022/03/28 05:52:27;;;;;;;34.17;14.30;;;;;;;4.39;93.42;102622.31;5034268;28;20025;-58
2022/03/28 05:54:52;;;;;;;39.88;15.55;;;;;;;4.34;93.26;102630.06;5039857;28;20109;-59
2022/03/28 05:57:18;;;;;;;35.17;13.90;;;;;;;4.35;93.40;102628.31;5033020;28;20029;-59
2022/03/28 05:59:43;;;;;;;41.10;16.55;;;;;;;4.37;93.48;102621.41;5043477;28;20466;-63
2022/03/28 06:02:08;;;;;;;44.13;16.40;;;;;;;4.37;93.92;102627.50;5043681;28;20496;-61
2022/03/28 06:04:34;;;;;;;38.70;16.38;;;;;;;4.41;93.81;102613.69;5026936;28;20356;-62
2022/03/28 06:06:59;;;;;;;49.67;16.23;;;;;;;4.40;93.96;102611.91;5009657;28;20095;-62
2022/03/28 06:09:25;;;;;;;37.67;16.45;;;;;;;4.42;93.79;102614.53;5044360;28;20025;-60
2022/03/28 06:11:50;;;;;;;56.83;15.93;;;;;;;4.39;93.27;102609.25;5047336;28;20049;-61
2022/03/28 06:14:15;;;;;;;77.03;17.38;;;;;;;4.35;93.41;102617.88;5045123;28;20086;-65
2022/03/28 06:16:41;;;;;;;52.60;14.15;;;;;;;4.31;93.41;102616.94;5046935;28;20064;-63
2022/03/28 06:19:06;;;;;;;53.05;15.27;;;;;;;4.33;93.85;102615.22;5045673;28;20052;-65
2022/03/28 06:21:31;;;;;;;93.75;16.50;;;;;;;4.32;93.75;102616.09;5046525;28;20021;-64
2022/03/28 06:23:58;;;;;;;77.07;15.75;;;;;;;4.28;93.23;102617.75;5037164;28;20720;-65
2022/03/28 06:26:23;;;;;;;70.78;15.40;;;;;;;4.36;93.11;102620.53;5035189;28;20229;-65
2022/03/28 06:28:49;;;;;;;68.60;14.52;;;;;;;4.39;92.81;102620.59;5044497;28;20029;-56
2022/03/28 06:31:15;;;;;;;38.75;13.23;;;;;;;4.33;92.93;102622.19;5038128;28;20040;-59
2022/03/28 06:33:41;;;;;;;32.15;13.43;;;;;;;4.34;93.04;102608.28;5037780;28;20037;-57
2022/03/28 06:36:06;;;;;;;21.17;12.18;;;;;;;4.34;92.67;102621.34;5033361;28;20013;-62
2022/03/28 06:38:31;;;;;;;14.70;9.57;;;;;;;4.53;91.73;102613.03;5017721;28;20559;-59
2022/03/28 06:40:57;;;;;;;19.88;10.25;;;;;;;4.47;90.95;102617.25;5047093;28;20048;-59
2022/03/28 06:43:22;;;;;;;23.35;8.75;;;;;;;4.38;90.76;102612.72;5038612;28;20483;-59
2022/03/28 06:45:47;;;;;;;19.70;9.10;;;;;;;4.23;90.81;102621.09;5031144;28;20559;-59
2022/03/28 06:48:13;;;;;;;26.02;10.65;;;;;;;4.25;91.46;102617.66;5044016;28;20021;-60
2022/03/28 06:50:38;;;;;;;17.33;9.05;;;;;;;4.33;91.83;102627.41;5045606;28;20032;-60
2022/03/28 06:53:04;;;;;;;29.60;9.40;;;;;;;4.33;91.56;102614.38;5029764;28;20345;-59
2022/03/28 06:55:29;;;;;;;16.13;8.95;;;;;;;4.40;91.21;102622.34;5046242;28;20044;-61
2022/03/28 06:57:55;;;;;;;16.60;9.55;;;;;;;4.41;90.64;102615.41;5046150;28;20089;-59
2022/03/28 07:00:20;;;;;;;18.30;7.90;;;;;;;4.46;90.41;102611.16;5045237;28;20529;-60
2022/03/28 07:02:46;;;;;;;25.98;9.63;;;;;;;4.46;90.33;102605.06;5043930;28;20013;-60
2022/03/28 07:05:11;;;;;;;14.13;8.13;;;;;;;4.55;90.11;102597.41;5034156;28;20175;-60
2022/03/28 07:07:46;;;;;;;22.55;8.30;;;;;;;4.43;89.52;102601.53;5036074;28;20488;-62
2022/03/28 07:10:20;;;;;;;21.73;9.57;;;;;;;4.46;90.11;102600.72;5025579;28;20041;-59
2022/03/28 07:12:47;;;;;;;14.40;8.60;;;;;;;4.37;90.24;102596.16;5039168;28;20046;-55
2022/03/28 07:15:13;;;;;;;24.73;9.48;;;;;;;4.55;89.90;102600.88;5026902;28;20021;-56
2022/03/28 07:18:02;;;;;;;20.23;9.20;;;;;;;4.76;90.21;102599.53;5045716;28;20513;-55
2022/03/28 07:20:29;;;;;;;12.93;8.50;;;;;;;4.92;89.03;102595.50;5045542;28;20021;-57
2022/03/28 07:22:55;;;;;;;19.52;8.05;;;;;;;4.98;88.56;102599.06;5042697;28;20028;-57
2022/03/28 07:25:21;;;;;;;25.00;10.43;;;;;;;4.88;88.78;102596.28;5044931;28;20033;-60
2022/03/28 07:27:50;;;;;;;15.90;10.57;;;;;;;5.07;89.47;102596.63;5026503;28;20083;-56
2022/03/28 07:30:17;;;;;;;15.27;9.55;;;;;;;5.13;88.82;102593.22;5044864;28;20443;-56
2022/03/28 07:32:43;;;;;;;14.80;9.93;;;;;;;5.21;88.83;102599.44;5044553;28;20025;-59
2022/03/28 07:35:09;;;;;;;23.27;9.88;;;;;;;5.39;88.34;102593.66;5045365;28;20040;-58
2022/03/28 07:37:35;;;;;;;12.43;8.95;;;;;;;5.53;87.50;102593.88;5045669;28;20056;-59
2022/03/28 07:40:02;;;;;;;16.13;9.10;;;;;;;5.48;87.42;102587.69;5045519;28;20035;-58
2022/03/28 07:42:28;;;;;;;16.17;9.85;;;;;;;5.54;86.90;102589.53;5045573;28;20020;-55
2022/03/28 07:44:55;;;;;;;18.33;9.63;;;;;;;5.63;86.75;102588.81;5044751;28;20032;-60
2022/03/28 07:47:25;;;;;;;21.35;9.68;;;;;;;5.66;87.35;102589.72;5045454;28;20070;-63
2022/03/28 07:49:54;;;;;;;13.18;9.77;;;;;;;5.73;87.03;102581.97;5045045;28;20048;-63
2022/03/28 07:52:20;;;;;;;15.32;9.45;;;;;;;5.88;87.68;102583.91;5045854;28;20028;-62
2022/03/28 07:54:47;;;;;;;16.40;9.73;;;;;;;5.90;86.78;102583.06;5044613;28;20540;-62
2022/03/28 07:57:14;;;;;;;19.52;11.57;;;;;;;6.03;86.37;102578.00;5045262;28;20734;-61
2022/03/28 07:59:40;;;;;;;13.60;9.75;;;;;;;6.27;86.45;102582.72;5043832;28;20029;-62
2022/03/28 08:02:07;;;;;;;12.05;8.98;;;;;;;6.30;84.92;102584.50;5045491;28;20029;-63
2022/03/28 08:04:32;;;;;;;12.57;8.82;;;;;;;6.19;85.27;102594.81;5045046;28;20033;-62
2022/03/28 08:06:58;;;;;;;18.08;9.75;;;;;;;6.24;84.67;102593.16;5043952;28;20171;-62
2022/03/28 08:09:24;;;;;;;14.20;8.65;;;;;;;6.26;84.67;102594.03;5045431;28;20060;-64
2022/03/28 08:11:49;;;;;;;15.13;8.43;;;;;;;6.29;85.02;102594.06;5043928;28;20052;-62
2022/03/28 08:14:14;;;;;;;15.75;9.38;;;;;;;6.46;85.06;102585.56;5044090;28;20084;-61
2022/03/28 08:16:39;;;;;;;20.67;10.52;;;;;;;6.47;85.14;102582.06;5044347;28;20124;-63
2022/03/28 08:19:05;;;;;;;20.73;9.70;;;;;;;6.55;85.03;102585.66;5042466;28;20021;-62
2022/03/28 08:21:31;;;;;;;19.98;11.15;;;;;;;6.69;84.55;102587.56;5029753;28;20056;-61
2022/03/28 08:23:56;;;;;;;19.25;9.75;;;;;;;6.74;83.88;102582.38;5045182;28;20041;-61
2022/03/28 08:26:22;;;;;;;16.65;10.38;;;;;;;6.73;84.36;102576.25;5025176;28;20083;-62
2022/03/28 08:28:47;;;;;;;17.65;10.27;;;;;;;6.84;84.38;102573.72;5044643;28;20017;-60
2022/03/28 08:31:13;;;;;;;21.30;10.60;;;;;;;7.19;84.97;102574.91;5043070;28;20111;-63
2022/03/28 08:33:38;;;;;;;21.58;10.20;;;;;;;7.31;84.46;102572.38;5044034;28;20025;-61
2022/03/28 08:36:04;;;;;;;15.13;9.20;;;;;;;7.32;83.05;102576.75;5044548;28;20024;-62
2022/03/28 08:38:31;;;;;;;17.33;10.25;;;;;;;7.46;83.14;102578.59;5044124;28;20483;-61
2022/03/28 08:40:57;;;;;;;15.63;9.55;;;;;;;7.53;81.76;102569.03;5043917;28;20450;-61
2022/03/28 08:43:22;;;;;;;14.70;10.23;;;;;;;7.62;81.38;102563.88;5043543;28;20021;-63
2022/03/28 08:45:51;;;;;;;14.32;10.45;;;;;;;7.61;81.43;102562.09;5044604;28;20079;-61
2022/03/28 08:48:17;;;;;;;15.32;9.77;;;;;;;7.65;80.50;102566.47;5037450;28;20037;-62
2022/03/28 08:50:46;;;;;;;18.95;10.35;;;;;;;7.79;81.45;102563.06;5045296;28;20029;-56
2022/03/28 08:53:12;;;;;;;17.90;10.50;;;;;;;7.95;81.70;102556.16;5024218;28;20454;-61
2022/03/28 08:55:42;;;;;;;14.32;9.25;;;;;;;7.91;81.30;102559.63;5057450;28;20505;-60
2022/03/28 08:58:08;;;;;;;16.88;10.23;;;;;;;7.64;81.60;102558.59;5042891;28;20091;-59
2022/03/28 09:00:33;;;;;;;20.83;10.38;;;;;;;7.45;82.96;102550.63;5045191;28;20028;-56
2022/03/28 09:02:59;;;;;;;21.67;10.02;;;;;;;7.75;81.86;102548.16;5044079;28;20017;-57
2022/03/28 09:05:49;;;;;;;24.27;10.10;;;;;;;8.01;80.49;102550.06;5044455;28;20040;-61
2022/03/28 09:08:15;;;;;;;21.70;9.10;;;;;;;8.15;79.49;102544.84;5042774;28;20021;-60
2022/03/28 09:10:46;;;;;;;23.05;10.30;;;;;;;7.77;80.79;102547.31;5025691;28;20037;-58
2022/03/28 09:13:13;;;;;;;20.80;10.68;;;;;;;7.77;82.13;102549.06;5037307;28;20048;-56
2022/03/28 09:15:55;;;;;;;20.80;11.68;;;;;;;7.73;82.95;102548.16;5043553;28;20029;-60
2022/03/28 09:18:31;;;;;;;18.98;10.80;;;;;;;7.75;82.98;102556.94;5041276;28;20021;-59
2022/03/28 09:21:02;;;;;;;19.90;10.75;;;;;;;7.85;81.93;102555.22;5042359;28;20136;-59
2022/03/28 09:23:54;;;;;;;19.52;11.13;;;;;;;7.96;80.92;102544.78;5041617;28;20399;-58
2022/03/28 09:26:23;;;;;;;21.75;11.55;;;;;;;7.89;81.61;102546.50;5036322;28;20938;-58
2022/03/28 09:28:56;;;;;;;21.05;11.18;;;;;;;7.97;81.92;102544.81;5042152;28;20044;-59
2022/03/28 09:31:42;;;;;;;23.50;11.07;;;;;;;8.22;81.04;102549.28;5029071;28;20468;-61
2022/03/28 09:34:17;;;;;;;19.45;9.60;;;;;;;8.33;81.49;102533.53;5030894;28;20644;-61
2022/03/28 09:36:50;;;;;;;21.52;11.38;;;;;;;8.38;81.43;102536.19;5023644;28;20288;-60
2022/03/28 09:39:21;;;;;;;20.30;11.48;;;;;;;8.40;81.48;102534.44;5023542;28;20029;-61
2022/03/28 09:42:08;;;;;;;23.17;12.38;;;;;;;8.40;81.93;102530.03;5024873;28;20083;-57
2022/03/28 09:44:39;;;;;;;24.13;12.07;;;;;;;8.52;81.89;102525.72;5022975;28;20425;-58
2022/03/28 09:47:09;;;;;;;24.70;12.07;;;;;;;8.66;81.93;102517.88;5039337;28;20156;-57
2022/03/28 09:49:35;;;;;;;21.17;11.55;;;;;;;8.74;80.52;102524.03;5042530;28;20032;-56
2022/03/28 09:52:21;;;;;;;27.77;12.60;;;;;;;8.90;79.90;102518.75;5040342;28;20132;-59
2022/03/28 09:54:56;;;;;;;21.52;13.02;;;;;;;8.81;80.51;102523.16;5043074;28;20029;-56
2022/03/28 09:57:32;;;;;;;23.60;11.52;;;;;;;8.77;80.15;102516.16;5024294;28;20036;-60
2022/03/28 10:00:14;;;;;;;21.45;12.07;;;;;;;8.48;81.41;102514.31;5036706;28;20040;-58
2022/03/28 10:02:41;;;;;;;21.98;13.07;;;;;;;8.53;81.69;102506.44;5035320;28;20025;-59
2022/03/28 10:05:07;;;;;;;21.75;11.50;;;;;;;8.77;81.36;102510.00;5025955;28;20030;-59
2022/03/28 10:07:32;;;;;;;20.42;12.90;;;;;;;8.85;81.22;102508.25;5024397;28;20033;-59
2022/03/28 10:09:59;;;;;;;25.08;11.57;;;;;;;8.93;81.41;102505.63;5017636;28;20360;-57
2022/03/28 10:12:25;;;;;;;21.27;12.35;;;;;;;8.90;81.09;102500.34;5042458;28;20136;-61
2022/03/28 10:14:57;;;;;;;27.92;13.20;;;;;;;9.03;81.31;102496.84;5041321;28;20131;-57
2022/03/28 10:17:24;;;;;;;23.08;13.18;;;;;;;9.28;80.35;102495.94;5042167;28;20029;-55
2022/03/28 10:19:50;;;;;;;20.42;12.23;;;;;;;9.50;79.50;102493.25;5035925;28;20056;-59
2022/03/28 10:22:27;;;;;;;22.08;12.60;;;;;;;9.42;79.46;102493.31;5035853;28;20040;-55
2022/03/28 10:24:53;;;;;;;24.92;12.98;;;;;;;9.65;78.72;102484.44;5035544;28;20510;-60
2022/03/28 10:27:19;;;;;;;25.83;13.27;;;;;;;9.56;79.85;102480.97;5003935;28;20091;-60
2022/03/28 10:29:45;;;;;;;21.95;13.20;;;;;;;9.73;79.86;102482.69;5023541;28;20021;-58
2022/03/28 10:32:15;;;;;;;24.80;13.95;;;;;;;9.89;79.31;102479.97;5038013;28;20104;-62
2022/03/28 10:34:56;;;;;;;24.30;12.68;;;;;;;10.06;77.11;102470.22;5043027;28;20086;-62
2022/03/28 10:37:25;;;;;;;26.02;13.45;;;;;;;10.16;76.46;102470.16;5034660;28;20095;-58
2022/03/28 10:39:51;;;;;;;24.08;13.20;;;;;;;10.28;75.69;102469.22;5023460;28;20029;-58
2022/03/28 10:42:18;;;;;;;26.65;13.45;;;;;;;10.27;75.49;102468.38;5023277;28;20021;-56
2022/03/28 10:45:02;;;;;;;26.58;14.00;;;;;;;10.22;75.55;102460.47;5004654;28;20030;-56
2022/03/28 10:47:44;;;;;;;28.30;13.27;;;;;;;10.32;76.48;102461.28;5005659;28;20992;-56
2022/03/28 10:50:12;;;;;;;27.15;12.88;;;;;;;10.29;76.99;102466.56;5025444;28;20563;-58
2022/03/28 10:52:37;;;;;;;22.25;12.60;;;;;;;10.52;75.82;102446.25;5033800;28;20298;-60
2022/03/28 10:55:08;;;;;;;28.10;13.18;;;;;;;10.56;76.96;102458.50;5043261;28;20033;-58
2022/03/28 10:57:35;;;;;;;19.75;11.40;;;;;;;10.99;74.78;102459.91;5043951;28;20055;-59
2022/03/28 11:00:06;;;;;;;23.58;12.05;;;;;;;10.95;74.57;102450.25;5046706;28;20017;-57
2022/03/28 11:02:32;;;;;;;28.17;13.18;;;;;;;10.93;75.47;102446.78;5027221;28;20082;-59
2022/03/28 11:05:13;;;;;;;22.65;11.77;;;;;;;11.23;76.27;102444.72;5046542;28;20025;-56
2022/03/28 11:07:38;;;;;;;22.83;12.18;;;;;;;11.19;73.86;102448.28;5045291;28;20394;-58
2022/03/28 11:10:10;;;;;;;25.52;12.38;;;;;;;11.25;73.38;102435.91;5028961;28;20120;-57
2022/03/28 11:12:40;;;;;;;21.55;11.93;;;;;;;11.43;72.76;102440.97;5027358;28;20605;-57
2022/03/28 11:15:13;;;;;;;23.50;12.45;;;;;;;11.38;72.70;102433.97;5046590;28;20511;-59
2022/03/28 11:18:11;;;;;;;25.83;12.20;;;;;;;11.71;73.08;102443.28;5046006;28;20521;-57
2022/03/28 11:20:48;;;;;;;23.58;12.38;;;;;;;12.20;72.90;102439.13;5046008;28;20025;-61
2022/03/28 11:23:15;;;;;;;25.10;12.85;;;;;;;12.32;71.50;102438.06;5045602;28;20021;-55